Time;durP1;ratioP1;P1;durP2;ratioP2;P2;SDS_P1;SDS_P2;PMS_P1;PMS_P2;Temp;Humidity;BMP_temperature;BMP_pressure;BME280_temperature;BME280_humidity;BME280_pressure;Samples;Min_cycle;Max_cycle;Signal;HPM_P1;HPM_P2
2021/03/20 00:00:41;;;;;;;6.43;5.43;;;3.70;67.10;;;;;;5015966;28;20418;-76
2021/03/20 00:03:07;;;;;;;12.93;6.40;;;3.80;66.90;;;;;;5015553;28;20426;-76
2021/03/20 00:05:34;;;;;;;6.93;5.13;;;3.80;66.60;;;;;;5016611;28;20421;-75
2021/03/20 00:08:01;;;;;;;7.07;4.93;;;3.80;66.30;;;;;;5015595;28;20452;-76
2021/03/20 00:10:29;;;;;;;9.10;5.60;;;3.80;66.00;;;;;;5027917;28;20492;-75
2021/03/20 00:12:55;;;;;;;7.43;6.13;;;3.80;66.00;;;;;;5016717;28;20938;-76
2021/03/20 00:15:24;;;;;;;7.10;4.93;;;3.80;65.80;;;;;;5015269;28;20453;-75
2021/03/20 00:17:50;;;;;;;9.30;6.33;;;3.70;65.70;;;;;;5032344;28;20406;-76
2021/03/20 00:20:26;;;;;;;10.40;5.47;;;3.60;65.90;;;;;;5016647;28;20445;-76
2021/03/20 00:22:52;;;;;;;7.80;5.37;;;3.50;66.10;;;;;;5015537;28;20437;-76
2021/03/20 00:25:19;;;;;;;9.30;5.60;;;3.50;66.40;;;;;;5031861;28;20463;-76
2021/03/20 00:27:45;;;;;;;7.40;6.00;;;3.40;66.60;;;;;;5016826;28;20168;-75
2021/03/20 00:30:12;;;;;;;7.60;5.37;;;3.30;66.90;;;;;;5016135;28;20418;-75
2021/03/20 00:32:38;;;;;;;9.30;5.47;;;3.20;67.20;;;;;;5014543;28;20993;-74
2021/03/20 00:35:07;;;;;;;5.73;5.03;;;3.20;67.80;;;;;;5015162;28;20405;-74
2021/03/20 00:37:33;;;;;;;10.07;5.83;;;3.10;68.00;;;;;;5015316;28;20857;-75
2021/03/20 00:39:59;;;;;;;8.53;5.37;;;3.10;68.30;;;;;;5014834;28;20485;-75
2021/03/20 00:42:25;;;;;;;8.93;6.10;;;3.10;68.60;;;;;;5016301;28;20449;-76
2021/03/20 00:44:51;;;;;;;7.17;5.83;;;3.00;68.60;;;;;;5015963;28;20174;-75
2021/03/20 00:47:17;;;;;;;8.97;6.00;;;3.00;68.80;;;;;;5016148;28;20194;-74
2021/03/20 00:49:43;;;;;;;11.23;6.30;;;2.90;69.00;;;;;;5030634;28;20183;-75
2021/03/20 00:52:09;;;;;;;8.10;4.93;;;2.90;69.20;;;;;;5016023;28;20436;-74
2021/03/20 00:54:34;;;;;;;12.90;6.43;;;2.90;70.30;;;;;;5016040;28;20426;-77
2021/03/20 00:57:00;;;;;;;8.07;5.27;;;2.80;69.60;;;;;;5015713;28;20178;-77
2021/03/20 00:59:26;;;;;;;7.27;5.50;;;2.80;69.90;;;;;;5014030;28;20199;-77
2021/03/20 01:01:52;;;;;;;8.43;5.60;;;2.80;70.10;;;;;;5012856;28;20167;-77
2021/03/20 01:04:19;;;;;;;12.90;5.90;;;2.80;70.40;;;;;;5011680;28;20213;-77
2021/03/20 01:06:44;;;;;;;11.23;6.00;;;2.70;70.60;;;;;;5013831;28;20445;-77
2021/03/20 01:09:10;;;;;;;9.20;5.73;;;2.70;70.80;;;;;;5012874;28;20449;-77
2021/03/20 01:11:36;;;;;;;8.73;5.50;;;2.70;71.00;;;;;;5012150;28;20171;-76
2021/03/20 01:14:02;;;;;;;11.60;6.27;;;2.60;71.10;;;;;;5014175;28;20265;-76
2021/03/20 01:16:28;;;;;;;6.93;5.57;;;2.60;71.30;;;;;;5013861;28;20183;-77
2021/03/20 01:18:55;;;;;;;7.90;5.37;;;2.60;71.40;;;;;;5012031;28;20450;-77
2021/03/20 01:21:23;;;;;;;7.37;5.50;;;2.60;71.60;;;;;;5012252;28;20418;-77
2021/03/20 01:23:48;;;;;;;10.47;6.07;;;2.60;71.80;;;;;;5028903;28;20521;-77
2021/03/20 01:26:14;;;;;;;11.10;6.07;;;2.60;71.80;;;;;;5014210;28;20505;-76
2021/03/20 01:28:41;;;;;;;9.50;5.37;;;2.60;72.00;;;;;;5011942;28;20171;-77
2021/03/20 01:31:08;;;;;;;8.13;5.70;;;2.60;71.90;;;;;;5014290;28;20190;-76
2021/03/20 01:33:34;;;;;;;9.23;5.73;;;2.60;71.90;;;;;;5013924;28;20468;-77
2021/03/20 01:36:00;;;;;;;9.27;5.97;;;2.50;71.70;;;;;;5013539;28;21115;-76
2021/03/20 01:38:27;;;;;;;10.20;6.80;;;2.60;71.90;;;;;;5013580;28;20199;-77
2021/03/20 01:40:56;;;;;;;13.10;6.33;;;2.60;71.70;;;;;;5013655;28;20425;-77
2021/03/20 01:43:24;;;;;;;11.50;6.93;;;2.60;71.60;;;;;;5013333;28;20476;-76
2021/03/20 01:45:51;;;;;;;8.30;5.90;;;2.50;71.40;;;;;;5014626;28;20402;-76
2021/03/20 01:48:26;;;;;;;12.17;6.03;;;2.60;71.70;;;;;;5014003;28;20453;-76
2021/03/20 01:51:01;;;;;;;10.17;7.30;;;2.50;71.70;;;;;;5013249;28;20415;-76
2021/03/20 01:53:34;;;;;;;10.30;6.70;;;2.50;71.70;;;;;;5013226;28;20574;-76
2021/03/20 01:56:03;;;;;;;8.60;6.07;;;2.50;71.70;;;;;;5028634;28;20783;-76
2021/03/20 01:58:30;;;;;;;9.27;5.77;;;2.40;71.80;;;;;;5012294;28;20458;-76
2021/03/20 02:01:11;;;;;;;9.13;6.33;;;2.40;71.90;;;;;;5012650;28;20429;-76
2021/03/20 02:03:37;;;;;;;8.73;6.40;;;2.40;72.10;;;;;;5012862;28;20452;-76
2021/03/20 02:06:04;;;;;;;9.47;6.17;;;2.30;72.20;;;;;;5013682;28;20417;-76
2021/03/20 02:08:30;;;;;;;8.13;6.03;;;2.30;72.40;;;;;;5011968;28;20421;-76
2021/03/20 02:11:10;;;;;;;10.00;7.60;;;2.30;72.70;;;;;;5012291;28;20464;-77
2021/03/20 02:13:42;;;;;;;8.90;6.30;;;2.20;72.80;;;;;;5002250;28;20210;-76
2021/03/20 02:16:15;;;;;;;12.57;6.57;;;2.20;73.10;;;;;;5001673;28;20725;-77
2021/03/20 02:18:46;;;;;;;10.23;6.23;;;2.20;73.20;;;;;;5012709;28;20512;-77
2021/03/20 02:21:15;;;;;;;18.73;6.60;;;2.20;73.30;;;;;;5013463;28;20414;-76
2021/03/20 02:24:18;;;;;;;9.73;7.17;;;2.10;73.50;;;;;;5016294;28;20449;-77
2021/03/20 02:27:02;;;;;;;8.00;6.63;;;2.10;73.90;;;;;;5012433;28;20417;-78
2021/03/20 02:29:56;;;;;;;9.90;7.20;;;2.10;74.10;;;;;;5012283;28;20414;-77
2021/03/20 02:32:49;;;;;;;6.77;5.03;;;2.10;74.10;;;;;;5011058;28;20538;-77
2021/03/20 02:35:26;;;;;;;11.77;7.13;;;2.10;74.10;;;;;;5011823;28;20426;-76
2021/03/20 02:37:59;;;;;;;8.90;7.50;;;2.00;74.10;;;;;;5012252;28;20417;-78
2021/03/20 02:40:59;;;;;;;10.00;5.93;;;2.00;74.30;;;;;;5027062;28;20458;-77
2021/03/20 02:43:54;;;;;;;9.03;6.47;;;2.00;74.40;;;;;;5007192;28;20460;-77
2021/03/20 02:46:38;;;;;;;12.10;6.67;;;2.00;74.50;;;;;;4996682;28;20414;-77
2021/03/20 02:49:17;;;;;;;11.07;6.50;;;1.90;74.50;;;;;;5012006;28;20505;-76
2021/03/20 02:51:59;;;;;;;11.80;7.67;;;1.90;74.40;;;;;;5011930;28;20449;-76
2021/03/20 02:54:33;;;;;;;9.20;6.53;;;1.90;75.30;;;;;;5012617;28;20420;-77
2021/03/20 02:57:10;;;;;;;10.20;6.70;;;1.90;74.50;;;;;;5012123;28;20454;-76
2021/03/20 02:59:40;;;;;;;6.43;5.10;;;1.90;74.40;;;;;;5012109;28;20488;-75
2021/03/20 03:02:08;;;;;;;10.70;7.37;;;1.90;74.50;;;;;;5011106;28;20418;-77
2021/03/20 03:04:43;;;;;;;13.80;6.93;;;1.90;74.50;;;;;;5027096;28;20446;-77
2021/03/20 03:07:21;;;;;;;11.90;7.27;;;1.80;74.50;;;;;;5010849;28;20420;-77
2021/03/20 03:10:05;;;;;;;9.77;6.37;;;1.80;74.70;;;;;;5010521;28;20457;-77
2021/03/20 03:12:38;;;;;;;11.00;7.23;;;1.80;74.70;;;;;;5010821;28;20449;-76
2021/03/20 03:15:24;;;;;;;10.17;6.80;;;1.80;74.90;;;;;;5012457;28;20781;-76
2021/03/20 03:18:00;;;;;;;9.90;7.20;;;1.80;74.90;;;;;;5012137;28;20418;-76
2021/03/20 03:20:30;;;;;;;10.60;7.47;;;1.80;75.00;;;;;;4995043;28;20456;-76
2021/03/20 03:23:03;;;;;;;12.60;8.10;;;1.70;75.00;;;;;;5011920;28;20512;-76
2021/03/20 03:25:31;;;;;;;9.07;6.93;;;1.70;75.20;;;;;;5011947;28;20422;-77
2021/03/20 03:28:01;;;;;;;10.03;7.57;;;1.70;75.40;;;;;;5011226;28;20430;-77
2021/03/20 03:30:27;;;;;;;11.00;6.57;;;1.60;75.50;;;;;;5008762;28;20497;-77
2021/03/20 03:33:08;;;;;;;10.87;6.87;;;1.60;75.70;;;;;;5011487;28;20894;-75
2021/03/20 03:35:41;;;;;;;11.63;5.87;;;1.60;75.60;;;;;;5011261;28;20426;-76
2021/03/20 03:38:25;;;;;;;10.70;5.97;;;1.60;75.70;;;;;;5010726;28;20410;-77
2021/03/20 03:40:59;;;;;;;9.37;5.53;;;1.60;75.60;;;;;;5009298;28;20448;-77
2021/03/20 03:43:25;;;;;;;8.37;4.90;;;1.60;75.30;;;;;;5010895;28;20453;-76
2021/03/20 03:45:50;;;;;;;10.07;6.10;;;1.50;75.20;;;;;;5011516;28;20398;-76
2021/03/20 03:48:18;;;;;;;6.67;4.30;;;1.50;75.10;;;;;;5010765;28;20179;-77
2021/03/20 03:50:46;;;;;;;8.50;4.63;;;1.50;74.10;;;;;;5011646;28;20167;-75
2021/03/20 03:53:15;;;;;;;4.90;2.83;;;1.50;73.50;;;;;;5011444;28;20429;-76
2021/03/20 03:55:42;;;;;;;6.43;3.80;;;1.40;72.20;;;;;;5011302;28;20421;-76
2021/03/20 03:58:24;;;;;;;5.10;3.73;;;1.40;71.30;;;;;;5012179;28;20433;-76
2021/03/20 04:01:01;;;;;;;6.20;2.83;;;1.40;70.80;;;;;;5014664;28;20491;-76
2021/03/20 04:03:47;;;;;;;3.83;3.13;;;1.40;70.90;;;;;;5028550;28;20434;-75
2021/03/20 04:06:41;;;;;;;4.63;3.17;;;1.40;70.70;;;;;;5017928;28;20906;-75
2021/03/20 04:09:44;;;;;;;10.40;4.80;;;1.40;70.70;;;;;;5014951;28;20418;-76
2021/03/20 04:12:41;;;;;;;11.43;4.30;;;1.40;70.60;;;;;;4994084;28;20426;-76
2021/03/20 04:15:33;;;;;;;7.80;3.50;;;1.30;70.30;;;;;;4995220;28;20478;-77
2021/03/20 04:18:09;;;;;;;5.30;4.17;;;1.30;70.00;;;;;;4987010;28;20419;-75
2021/03/20 04:20:49;;;;;;;5.20;3.70;;;1.40;69.90;;;;;;5012857;28;20426;-76
2021/03/20 04:23:25;;;;;;;5.40;3.77;;;1.40;69.50;;;;;;5013140;28;20436;-77
2021/03/20 04:25:57;;;;;;;6.03;3.43;;;1.40;68.40;;;;;;5013199;28;20898;-75
2021/03/20 04:28:48;;;;;;;10.83;2.90;;;1.40;67.60;;;;;;5012736;28;20482;-76
2021/03/20 04:31:28;;;;;;;4.30;3.10;;;1.50;67.00;;;;;;5014285;28;20409;-75
2021/03/20 04:34:06;;;;;;;5.07;2.70;;;1.50;65.60;;;;;;4993467;28;20522;-76
2021/03/20 04:36:48;;;;;;;3.97;2.80;;;1.50;65.00;;;;;;5009895;28;21070;-77
2021/03/20 04:39:17;;;;;;;4.47;2.53;;;1.50;65.00;;;;;;4994193;28;20462;-76
2021/03/20 04:41:43;;;;;;;5.07;2.97;;;1.50;64.80;;;;;;5013319;28;20453;-76
2021/03/20 04:44:10;;;;;;;5.60;3.03;;;1.50;64.50;;;;;;5029290;28;20422;-75
2021/03/20 04:46:37;;;;;;;4.43;2.63;;;1.40;64.50;;;;;;5013693;28;20804;-76
2021/03/20 04:49:17;;;;;;;4.40;2.50;;;1.40;64.50;;;;;;5013755;28;20410;-78
2021/03/20 04:51:54;;;;;;;5.67;2.47;;;1.30;64.20;;;;;;4995504;28;20495;-76
2021/03/20 04:54:21;;;;;;;3.67;2.70;;;1.30;64.30;;;;;;5012268;28;20402;-77
2021/03/20 04:57:03;;;;;;;17.40;7.90;;;1.20;64.10;;;;;;5013856;28;20441;-76
2021/03/20 04:59:50;;;;;;;15.23;5.83;;;1.20;64.10;;;;;;5013686;28;20453;-77
2021/03/20 05:02:33;;;;;;;9.40;3.80;;;1.10;64.30;;;;;;4993605;28;20542;-76
2021/03/20 05:05:06;;;;;;;7.47;3.47;;;1.10;64.50;;;;;;4976456;28;21217;-76
2021/03/20 05:07:34;;;;;;;6.27;3.13;;;1.10;64.70;;;;;;5008616;28;20418;-76
2021/03/20 05:10:01;;;;;;;5.93;2.70;;;1.10;65.10;;;;;;4997808;28;20489;-77
2021/03/20 05:12:29;;;;;;;4.23;2.83;;;1.00;65.40;;;;;;5014438;28;20436;-76
2021/03/20 05:15:06;;;;;;;5.43;2.83;;;1.00;65.80;;;;;;5013873;28;20838;-76
2021/03/20 05:17:32;;;;;;;3.57;2.50;;;1.00;66.10;;;;;;5013615;28;20414;-75
2021/03/20 05:19:59;;;;;;;5.30;3.00;;;1.00;66.30;;;;;;5012828;28;20549;-77
2021/03/20 05:22:28;;;;;;;6.43;3.70;;;1.00;66.40;;;;;;5012161;28;20438;-76
2021/03/20 05:24:56;;;;;;;2.90;2.33;;;1.00;66.40;;;;;;5013244;28;20394;-76
2021/03/20 05:27:25;;;;;;;4.83;3.07;;;1.00;66.30;;;;;;5013747;28;20456;-76
2021/03/20 05:29:51;;;;;;;11.03;3.33;;;0.90;66.60;;;;;;5012863;28;20517;-76
2021/03/20 05:32:22;;;;;;;4.60;2.90;;;0.90;66.70;;;;;;5013611;28;20501;-76
2021/03/20 05:34:49;;;;;;;7.37;3.00;;;0.80;66.70;;;;;;5013294;28;20186;-77
2021/03/20 05:37:25;;;;;;;7.30;2.70;;;0.80;66.90;;;;;;5012585;28;20448;-77
2021/03/20 05:39:51;;;;;;;8.57;3.40;;;0.80;67.10;;;;;;5013614;28;21133;-77
2021/03/20 05:42:39;;;;;;;6.37;2.80;;;0.80;67.60;;;;;;5013394;28;20450;-77
2021/03/20 05:45:07;;;;;;;6.03;3.53;;;0.70;67.50;;;;;;5013533;28;20509;-76
2021/03/20 05:47:51;;;;;;;5.03;2.83;;;0.70;67.90;;;;;;5014109;28;20914;-77
2021/03/20 05:50:34;;;;;;;5.67;3.07;;;0.60;68.20;;;;;;5012657;28;20449;-77
2021/03/20 05:53:33;;;;;;;6.70;3.03;;;0.60;68.30;;;;;;5013462;28;20438;-77
2021/03/20 05:56:06;;;;;;;5.80;2.73;;;0.60;68.50;;;;;;5014426;28;20405;-76
2021/03/20 05:59:10;;;;;;;6.87;3.87;;;0.70;68.10;;;;;;5014648;28;20496;-76
2021/03/20 06:01:38;;;;;;;3.77;2.80;;;0.70;67.80;;;;;;4996323;28;20425;-76
2021/03/20 06:04:17;;;;;;;4.43;2.57;;;0.80;67.40;;;;;;5013959;28;21008;-77
2021/03/20 06:06:58;;;;;;;9.57;2.97;;;0.90;67.30;;;;;;5012302;28;20417;-76
2021/03/20 06:09:47;;;;;;;6.13;2.80;;;1.00;67.00;;;;;;5013378;28;20541;-77
2021/03/20 06:12:19;;;;;;;5.20;2.80;;;1.10;66.60;;;;;;5010840;28;20503;-76
2021/03/20 06:14:54;;;;;;;4.33;1.90;;;1.20;66.10;;;;;;5013627;28;20483;-77
2021/03/20 06:17:44;;;;;;;5.50;2.93;;;1.30;65.60;;;;;;5014161;28;20429;-78
2021/03/20 06:20:20;;;;;;;4.87;2.37;;;1.40;65.10;;;;;;5029556;28;20819;-76
2021/03/20 06:22:57;;;;;;;3.80;2.30;;;1.50;64.50;;;;;;5013153;28;20425;-77
2021/03/20 06:25:45;;;;;;;4.90;2.90;;;1.50;64.40;;;;;;5016015;28;20423;-76
2021/03/20 06:28:13;;;;;;;4.90;2.53;;;1.60;64.40;;;;;;5017606;28;20398;-76
2021/03/20 06:30:46;;;;;;;8.03;3.20;;;1.60;64.30;;;;;;5019212;28;20409;-76
2021/03/20 06:33:15;;;;;;;6.33;3.17;;;1.60;64.30;;;;;;5017402;28;20442;-75
2021/03/20 06:35:56;;;;;;;5.73;3.30;;;1.60;64.40;;;;;;5019162;28;20506;-77
2021/03/20 06:38:40;;;;;;;8.00;3.40;;;1.60;64.80;;;;;;5018938;28;20424;-75
2021/03/20 06:41:18;;;;;;;5.00;2.73;;;1.60;65.20;;;;;;5024143;28;20424;-76
2021/03/20 06:43:51;;;;;;;4.10;2.73;;;1.60;65.00;;;;;;5032050;28;20433;-76
2021/03/20 06:46:20;;;;;;;3.57;3.03;;;1.60;64.80;;;;;;5048460;28;20402;-76
2021/03/20 06:48:47;;;;;;;3.73;3.10;;;1.70;64.70;;;;;;5032025;28;20421;-76
2021/03/20 06:51:13;;;;;;;3.70;2.20;;;1.70;64.10;;;;;;5031226;28;20415;-76
2021/03/20 06:53:45;;;;;;;6.43;3.60;;;1.90;63.30;;;;;;5031319;28;20440;-76
2021/03/20 06:56:14;;;;;;;6.67;2.67;;;2.00;62.10;;;;;;5029339;28;20413;-77
2021/03/20 06:58:41;;;;;;;6.53;4.83;;;2.30;61.30;;;;;;5031299;28;20434;-77
2021/03/20 07:01:24;;;;;;;4.37;3.30;;;2.50;59.80;;;;;;5046713;28;20422;-77
2021/03/20 07:04:08;;;;;;;5.30;3.20;;;2.70;58.90;;;;;;5012515;28;20437;-76
2021/03/20 07:06:37;;;;;;;14.17;6.97;;;2.70;58.30;;;;;;5010136;28;20418;-76
2021/03/20 07:09:06;;;;;;;7.50;3.23;;;2.80;58.20;;;;;;5011586;28;20406;-75
2021/03/20 07:11:35;;;;;;;7.73;5.23;;;2.70;57.80;;;;;;5012078;28;20406;-77
2021/03/20 07:14:05;;;;;;;7.40;4.07;;;2.70;57.90;;;;;;5011674;28;20440;-76
2021/03/20 07:16:48;;;;;;;9.07;4.40;;;2.60;58.30;;;;;;5010594;28;20437;-77
2021/03/20 07:19:15;;;;;;;13.77;5.60;;;2.50;58.30;;;;;;5011594;28;20458;-76
2021/03/20 07:21:42;;;;;;;28.23;12.67;;;2.40;58.50;;;;;;5026877;28;20438;-77
2021/03/20 07:24:16;;;;;;;12.63;6.47;;;2.40;58.80;;;;;;5012353;28;20407;-77
2021/03/20 07:26:50;;;;;;;9.20;4.83;;;2.40;58.80;;;;;;5012143;28;20831;-77
2021/03/20 07:29:17;;;;;;;11.40;5.50;;;2.40;59.00;;;;;;5011555;28;20444;-77
2021/03/20 07:31:59;;;;;;;9.93;5.60;;;2.40;59.10;;;;;;5011589;28;20911;-76
2021/03/20 07:34:30;;;;;;;7.63;4.90;;;2.40;58.80;;;;;;5030396;28;20860;-78
2021/03/20 07:37:24;;;;;;;10.23;3.23;;;2.50;59.10;;;;;;5015205;28;20425;-76
2021/03/20 07:39:54;;;;;;;12.87;6.70;;;2.50;59.10;;;;;;5011681;28;20552;-77
2021/03/20 07:42:22;;;;;;;18.63;8.60;;;2.60;59.20;;;;;;5013687;28;20450;-77
2021/03/20 07:44:59;;;;;;;9.30;5.83;;;2.70;59.30;;;;;;5015283;28;20429;-77
2021/03/20 07:47:32;;;;;;;32.30;11.53;;;2.80;59.40;;;;;;5010188;28;20418;-77
2021/03/20 07:50:20;;;;;;;8.07;3.67;;;3.90;59.20;;;;;;5015414;28;20450;-76
2021/03/20 07:53:04;;;;;;;30.07;12.47;;;5.70;55.70;;;;;;5015287;28;20461;-76
2021/03/20 07:55:51;;;;;;;10.93;5.63;;;7.40;51.70;;;;;;5011793;28;20422;-75
2021/03/20 07:58:27;;;;;;;17.37;6.83;;;8.70;49.50;;;;;;5003097;28;20507;-77
2021/03/20 08:00:59;;;;;;;23.57;11.03;;;10.20;45.50;;;;;;5016804;28;20428;-76
2021/03/20 08:03:29;;;;;;;14.00;7.93;;;10.90;41.50;;;;;;5023246;28;20481;-75
2021/03/20 08:06:16;;;;;;;4.77;3.60;;;11.40;40.40;;;;;;5016171;28;20488;-77
2021/03/20 08:08:42;;;;;;;12.53;6.97;;;11.70;39.60;;;;;;5015222;28;20509;-77
2021/03/20 08:11:31;;;;;;;13.23;6.60;;;12.40;39.20;;;;;;5030913;28;20499;-77
2021/03/20 08:14:12;;;;;;;15.27;7.00;;;13.30;38.20;;;;;;5015360;28;20195;-76
2021/03/20 08:16:38;;;;;;;9.03;6.43;;;13.80;35.40;;;;;;5015023;28;20436;-76
2021/03/20 08:19:15;;;;;;;6.83;4.37;;;14.00;35.90;;;;;;5016085;28;20974;-76
2021/03/20 08:22:10;;;;;;;9.23;5.67;;;14.00;34.30;;;;;;5015504;28;20233;-75
2021/03/20 08:24:49;;;;;;;8.60;4.87;;;14.30;33.80;;;;;;5014662;28;20418;-77
2021/03/20 08:27:23;;;;;;;5.40;3.70;;;14.20;33.40;;;;;;5015440;28;20414;-76
2021/03/20 08:30:13;;;;;;;5.00;3.30;;;14.60;33.70;;;;;;4997436;28;20729;-78
2021/03/20 08:32:53;;;;;;;7.40;4.07;;;14.30;32.40;;;;;;5029813;28;20439;-76
2021/03/20 08:35:35;;;;;;;10.20;5.00;;;14.00;33.20;;;;;;5013544;28;20413;-76
2021/03/20 08:38:14;;;;;;;9.37;4.43;;;13.60;34.20;;;;;;5012522;28;20427;-77
2021/03/20 08:41:06;;;;;;;5.60;3.77;;;13.80;33.80;;;;;;5014965;28;20943;-75
2021/03/20 08:43:57;;;;;;;6.13;3.93;;;14.70;32.50;;;;;;4996426;28;20443;-74
2021/03/20 08:46:46;;;;;;;6.50;4.40;;;15.10;31.80;;;;;;5023746;28;20460;-73
2021/03/20 08:49:44;;;;;;;6.03;4.30;;;15.50;32.20;;;;;;4997726;28;20775;-74
2021/03/20 08:52:25;;;;;;;5.53;4.20;;;14.80;31.50;;;;;;5014794;28;20517;-74
2021/03/20 08:55:13;;;;;;;6.73;3.40;;;14.70;31.80;;;;;;4997462;28;20419;-73
2021/03/20 08:58:12;;;;;;;7.07;4.50;;;14.50;32.20;;;;;;5014560;28;20419;-74
2021/03/20 09:00:50;;;;;;;7.10;3.73;;;14.20;32.70;;;;;;5014793;28;20460;-75
2021/03/20 09:03:21;;;;;;;5.90;3.53;;;14.20;32.50;;;;;;5015022;28;20430;-74
2021/03/20 09:05:54;;;;;;;6.10;4.70;;;14.80;32.60;;;;;;5013911;28;20446;-74
2021/03/20 09:08:33;;;;;;;7.43;4.50;;;15.20;32.10;;;;;;5014434;28;20474;-74
2021/03/20 09:11:02;;;;;;;5.20;4.13;;;15.30;31.20;;;;;;5012622;28;20421;-74
2021/03/20 09:13:38;;;;;;;5.40;3.80;;;15.10;31.50;;;;;;5014662;28;20462;-74
2021/03/20 09:16:11;;;;;;;7.00;4.27;;;14.90;30.70;;;;;;5013809;28;20412;-75
2021/03/20 09:18:40;;;;;;;6.93;4.00;;;15.40;31.20;;;;;;5012226;28;20423;-75
2021/03/20 09:21:09;;;;;;;4.87;3.97;;;15.20;30.00;;;;;;5013365;28;20868;-75
2021/03/20 09:23:44;;;;;;;11.67;7.70;;;14.90;30.30;;;;;;5013323;28;20430;-74
2021/03/20 09:26:30;;;;;;;4.90;4.00;;;15.30;29.50;;;;;;5011906;28;20439;-76
2021/03/20 09:28:56;;;;;;;12.20;4.73;;;14.40;31.40;;;;;;5012452;28;20441;-75
2021/03/20 09:31:28;;;;;;;3.80;3.23;;;14.70;30.00;;;;;;5013143;28;20422;-74
2021/03/20 09:33:54;;;;;;;6.23;3.57;;;14.60;31.10;;;;;;5013265;28;20191;-73
2021/03/20 09:36:19;;;;;;;9.40;5.73;;;15.40;29.80;;;;;;5011402;28;20919;-75
2021/03/20 09:38:49;;;;;;;8.80;4.83;;;16.00;29.80;;;;;;5010627;28;20459;-74
2021/03/20 09:41:14;;;;;;;5.90;3.80;;;15.90;28.50;;;;;;5013243;28;20253;-74
2021/03/20 09:43:54;;;;;;;4.57;4.03;;;15.10;28.90;;;;;;5010470;28;20545;-75
2021/03/20 09:46:38;;;;;;;4.17;3.37;;;15.00;29.30;;;;;;5009721;28;20357;-75
2021/03/20 09:49:07;;;;;;;7.00;4.07;;;15.30;29.10;;;;;;5012175;28;20992;-73
2021/03/20 09:51:48;;;;;;;5.03;3.67;;;15.60;28.80;;;;;;5012646;28;20480;-74
2021/03/20 09:56:56;;;;;;;8.40;5.10;;;15.30;28.90;;;;;;5010666;28;20751;-74
2021/03/20 09:59:28;;;;;;;6.20;4.20;;;15.40;29.10;;;;;;5013309;28;20486;-74
2021/03/20 10:01:59;;;;;;;6.73;5.20;;;14.50;28.40;;;;;;5012469;28;20406;-75
2021/03/20 10:04:59;;;;;;;6.90;4.97;;;13.40;29.80;;;;;;5013583;28;20783;-74
2021/03/20 10:07:26;;;;;;;6.60;4.10;;;13.50;30.30;;;;;;5011527;28;20405;-74
2021/03/20 10:09:58;;;;;;;8.33;4.90;;;13.50;29.80;;;;;;5011939;28;20402;-76
2021/03/20 10:12:36;;;;;;;16.53;5.80;;;12.50;30.60;;;;;;5012795;28;20440;-76
2021/03/20 10:15:11;;;;;;;8.23;5.40;;;12.00;30.90;;;;;;5013551;28;20417;-74
2021/03/20 10:18:11;;;;;;;6.53;4.07;;;11.30;31.60;;;;;;5013762;28;20485;-75
2021/03/20 10:20:58;;;;;;;6.87;5.13;;;10.90;31.20;;;;;;4960646;28;20998;-76
2021/03/20 10:23:47;;;;;;;6.03;3.90;;;10.30;32.00;;;;;;4993793;28;20481;-74
2021/03/20 10:26:34;;;;;;;7.57;5.67;;;10.10;32.30;;;;;;4993710;28;20726;-75
2021/03/20 10:29:06;;;;;;;5.77;4.03;;;10.10;33.10;;;;;;4993992;28;20415;-75
2021/03/20 10:31:53;;;;;;;7.00;3.60;;;9.60;31.60;;;;;;4993652;28;20422;-75
2021/03/20 10:34:22;;;;;;;4.90;4.03;;;9.20;33.10;;;;;;5013561;28;20410;-76
2021/03/20 10:37:01;;;;;;;6.77;3.83;;;9.20;34.00;;;;;;5012052;28;20520;-75
2021/03/20 10:39:37;;;;;;;9.33;3.77;;;9.30;31.10;;;;;;4995941;28;20442;-76
2021/03/20 10:42:15;;;;;;;4.13;2.80;;;9.20;30.60;;;;;;5013298;28;20536;-76
2021/03/20 10:44:44;;;;;;;4.50;3.37;;;9.20;30.80;;;;;;5012475;28;20418;-74
2021/03/20 10:47:30;;;;;;;5.30;3.60;;;9.30;30.40;;;;;;5013601;28;20922;-75
2021/03/20 10:50:06;;;;;;;5.40;2.70;;;9.30;28.50;;;;;;5011232;28;20425;-74
2021/03/20 10:52:37;;;;;;;3.87;3.30;;;9.30;27.50;;;;;;5012381;28;20955;-75
2021/03/20 10:55:16;;;;;;;6.30;3.60;;;9.50;26.10;;;;;;5012101;28;20410;-75
2021/03/20 10:57:42;;;;;;;4.03;2.40;;;9.40;27.60;;;;;;5011838;28;20424;-74
2021/03/20 11:00:31;;;;;;;6.87;3.20;;;9.50;27.70;;;;;;5012047;28;20529;-75
2021/03/20 11:03:18;;;;;;;5.90;2.57;;;9.50;27.40;;;;;;5027239;28;20430;-75
2021/03/20 11:05:43;;;;;;;3.20;2.30;;;9.70;27.80;;;;;;5013075;28;21025;-75
2021/03/20 11:08:27;;;;;;;7.97;3.97;;;10.00;25.60;;;;;;5013211;28;20405;-75
2021/03/20 11:11:15;;;;;;;6.23;4.00;;;10.40;26.30;;;;;;5012855;28;20413;-74
2021/03/20 11:13:47;;;;;;;7.70;2.70;;;10.40;26.60;;;;;;4993477;28;20431;-76
2021/03/20 11:16:16;;;;;;;6.43;3.80;;;10.10;26.90;;;;;;4993267;28;20865;-75
2021/03/20 11:18:50;;;;;;;5.03;3.47;;;10.20;26.90;;;;;;5007921;28;20458;-76
2021/03/20 11:21:24;;;;;;;6.97;2.80;;;10.30;25.50;;;;;;4992818;28;20399;-75
2021/03/20 11:23:55;;;;;;;4.30;2.67;;;10.50;24.80;;;;;;4982573;28;20438;-76
2021/03/20 11:26:48;;;;;;;4.33;2.70;;;10.50;23.10;;;;;;5010896;28;20482;-76
2021/03/20 11:29:26;;;;;;;2.77;2.50;;;10.50;23.40;;;;;;5011504;28;20448;-75
2021/03/20 11:32:01;;;;;;;3.40;2.63;;;10.50;23.60;;;;;;5012707;28;20418;-76
2021/03/20 11:34:41;;;;;;;2.93;2.03;;;10.30;24.40;;;;;;5010970;28;20508;-75
2021/03/20 11:37:19;;;;;;;4.00;2.23;;;10.40;25.70;;;;;;5013255;28;20425;-74
2021/03/20 11:39:51;;;;;;;3.73;2.00;;;10.70;25.60;;;;;;5011646;28;20464;-74
2021/03/20 11:42:17;;;;;;;3.63;2.20;;;10.60;24.90;;;;;;5012087;28;20442;-75
2021/03/20 11:44:49;;;;;;;4.00;1.97;;;10.60;24.80;;;;;;5011225;28;20484;-72
2021/03/20 11:47:27;;;;;;;7.20;2.90;;;10.50;24.30;;;;;;5012890;28;20526;-73
2021/03/20 11:49:57;;;;;;;5.10;3.03;;;10.40;24.60;;;;;;5016852;28;20395;-72
2021/03/20 11:52:35;;;;;;;3.80;2.07;;;10.20;24.70;;;;;;5013530;28;20509;-72
2021/03/20 11:55:16;;;;;;;3.60;2.30;;;10.30;24.80;;;;;;5012116;28;20431;-71
2021/03/20 11:57:43;;;;;;;6.90;4.80;;;10.30;25.20;;;;;;4996754;28;20425;-72
2021/03/20 12:00:28;;;;;;;3.60;2.47;;;10.40;26.40;;;;;;4995292;28;20453;-73
2021/03/20 12:02:54;;;;;;;4.53;2.00;;;10.40;24.00;;;;;;4999467;28;20524;-73
2021/03/20 12:05:29;;;;;;;4.00;2.70;;;10.30;24.00;;;;;;5013222;28;20437;-72
2021/03/20 12:08:19;;;;;;;3.93;2.00;;;10.00;24.70;;;;;;5013936;28;20178;-72
2021/03/20 12:10:59;;;;;;;3.97;2.17;;;9.70;26.10;;;;;;5038927;28;20432;-73
2021/03/20 12:13:43;;;;;;;4.97;2.53;;;9.40;26.70;;;;;;5012049;28;20465;-72
2021/03/20 12:16:31;;;;;;;15.30;3.87;;;9.20;26.90;;;;;;5011560;28;20406;-73
2021/03/20 12:19:15;;;;;;;6.27;2.97;;;9.10;26.80;;;;;;4993028;28;20454;-74
2021/03/20 12:22:14;;;;;;;6.80;3.50;;;9.20;26.30;;;;;;5009940;28;20480;-74
2021/03/20 12:24:49;;;;;;;3.50;2.70;;;9.40;25.40;;;;;;4953419;28;20422;-73
2021/03/20 12:27:33;;;;;;;3.33;1.50;;;9.40;26.00;;;;;;4980223;28;20902;-73
2021/03/20 12:30:25;;;;;;;4.03;1.90;;;9.10;25.20;;;;;;5011247;28;20434;-76
2021/03/20 12:32:53;;;;;;;4.27;2.70;;;9.00;26.00;;;;;;5015263;28;20429;-74
2021/03/20 12:35:19;;;;;;;3.37;1.53;;;9.00;25.30;;;;;;5014543;28;20419;-72
2021/03/20 12:37:49;;;;;;;3.97;3.60;;;8.90;24.70;;;;;;5014167;28;20514;-73
2021/03/20 12:40:19;;;;;;;5.10;2.10;;;8.80;24.60;;;;;;5013501;28;20210;-75
2021/03/20 12:42:45;;;;;;;2.63;2.07;;;9.00;25.00;;;;;;5014603;28;20636;-75
2021/03/20 12:45:20;;;;;;;2.00;1.57;;;9.10;23.90;;;;;;5014687;28;20963;-73
2021/03/20 12:47:46;;;;;;;2.30;1.60;;;9.10;23.70;;;;;;5014603;28;20604;-75
2021/03/20 12:50:12;;;;;;;2.97;1.77;;;9.00;24.00;;;;;;5013677;28;20434;-76
2021/03/20 12:52:38;;;;;;;2.50;1.70;;;9.00;23.20;;;;;;5014654;28;20445;-76
2021/03/20 12:55:06;;;;;;;2.30;1.90;;;9.00;23.20;;;;;;5012946;28;20163;-74
2021/03/20 12:57:33;;;;;;;4.03;1.60;;;9.00;21.70;;;;;;4996624;28;20426;-75
2021/03/20 12:59:59;;;;;;;6.50;1.57;;;9.00;22.00;;;;;;5014681;28;20453;-73
2021/03/20 13:02:25;;;;;;;2.60;1.47;;;9.10;21.70;;;;;;5014813;28;20819;-74
2021/03/20 13:04:52;;;;;;;3.17;1.50;;;9.10;20.90;;;;;;5014316;28;20417;-72
2021/03/20 13:07:19;;;;;;;2.50;1.53;;;9.20;20.60;;;;;;5015422;28;20190;-75
2021/03/20 13:09:47;;;;;;;2.03;1.37;;;9.20;20.90;;;;;;5014731;28;20405;-75
2021/03/20 13:12:12;;;;;;;3.40;2.57;;;9.30;22.10;;;;;;5012380;28;20445;-75
2021/03/20 13:14:39;;;;;;;10.70;3.30;;;9.20;22.80;;;;;;5014540;28;20410;-75
2021/03/20 13:17:06;;;;;;;2.13;1.20;;;9.20;22.50;;;;;;5013113;28;20921;-75
2021/03/20 13:19:32;;;;;;;2.10;1.30;;;9.30;22.90;;;;;;5015042;28;20453;-75
2021/03/20 13:21:59;;;;;;;3.00;1.30;;;9.10;22.10;;;;;;5014749;28;20796;-75
2021/03/20 13:24:25;;;;;;;5.90;2.50;;;9.10;21.90;;;;;;5013831;28;20402;-76
2021/03/20 13:26:51;;;;;;;6.80;3.30;;;9.10;21.30;;;;;;5013777;28;20449;-74
2021/03/20 13:29:17;;;;;;;4.40;2.10;;;9.00;20.90;;;;;;5013256;28;20418;-75
2021/03/20 13:31:43;;;;;;;3.30;1.73;;;9.10;21.40;;;;;;5011948;28;20670;-75
2021/03/20 13:34:08;;;;;;;2.00;1.40;;;9.20;21.60;;;;;;5012897;28;20163;-75